Time;durP1;ratioP1;P1;durP2;ratioP2;P2;SDS_P1;SDS_P2;PMS_P1;PMS_P2;Temp;Humidity;BMP_temperature;BMP_pressure;BME280_temperature;BME280_humidity;BME280_pressure;Samples;Min_cycle;Max_cycle;Signal;HPM_P1;HPM_P2
2024/01/21 00:00:15;;;;;;;6.33;4.23;;;;;;;;;;6140518;29;20299;-70
2024/01/21 00:03:19;;;;;;;5.70;4.03;;;;;;;;;;6140134;28;20503;-70
2024/01/21 00:06:23;;;;;;;4.70;4.30;;;;;;;;;;6141023;29;20300;-70
2024/01/21 00:09:28;;;;;;;5.97;3.83;;;;;;;;;;6139940;28;20300;-70
2024/01/21 00:12:34;;;;;;;7.10;4.43;;;;;;;;;;6140691;29;20294;-70
2024/01/21 00:15:37;;;;;;;4.57;4.03;;;;;;;;;;6148808;28;20294;-70
2024/01/21 00:18:41;;;;;;;8.83;4.80;;;;;;;;;;6159387;28;20299;-69
2024/01/21 00:21:46;;;;;;;6.93;4.83;;;;;;;;;;6140231;29;20304;-69
2024/01/21 00:24:49;;;;;;;10.67;4.77;;;;;;;;;;6139848;29;20293;-70
2024/01/21 00:27:55;;;;;;;10.97;5.53;;;;;;;;;;6139406;29;20614;-70
2024/01/21 00:30:59;;;;;;;9.10;5.17;;;;;;;;;;6139835;29;20305;-69
2024/01/21 00:34:03;;;;;;;11.93;5.50;;;;;;;;;;6139669;29;20297;-69
2024/01/21 00:37:07;;;;;;;8.83;5.37;;;;;;;;;;6139935;28;20314;-70
2024/01/21 00:40:11;;;;;;;11.03;4.93;;;;;;;;;;6139528;29;20566;-69
2024/01/21 00:43:17;;;;;;;16.10;5.30;;;;;;;;;;6139216;29;20298;-69
2024/01/21 00:46:21;;;;;;;9.43;4.83;;;;;;;;;;6139613;29;20297;-70
2024/01/21 00:49:25;;;;;;;9.53;5.27;;;;;;;;;;6121615;29;20322;-70
2024/01/21 00:52:29;;;;;;;11.63;4.63;;;;;;;;;;6139211;29;20497;-69
2024/01/21 00:55:33;;;;;;;8.60;4.20;;;;;;;;;;6139236;28;20302;-70
2024/01/21 00:58:38;;;;;;;8.17;4.20;;;;;;;;;;6139305;28;20456;-70
2024/01/21 01:01:42;;;;;;;5.43;4.43;;;;;;;;;;6139588;29;20294;-70
2024/01/21 01:04:46;;;;;;;7.20;3.97;;;;;;;;;;6139000;28;20485;-70
2024/01/21 01:07:51;;;;;;;4.97;3.30;;;;;;;;;;6138821;28;20306;-70
2024/01/21 01:10:55;;;;;;;9.67;3.70;;;;;;;;;;6139141;29;20314;-69
2024/01/21 01:14:00;;;;;;;3.77;3.47;;;;;;;;;;6138986;29;20305;-69
2024/01/21 01:17:04;;;;;;;3.80;3.57;;;;;;;;;;6159476;28;20315;-70
2024/01/21 01:20:10;;;;;;;7.47;3.77;;;;;;;;;;6146957;28;20314;-70
2024/01/21 01:23:14;;;;;;;5.53;3.40;;;;;;;;;;6138746;28;20294;-70
2024/01/21 01:26:18;;;;;;;3.73;3.43;;;;;;;;;;6139257;29;20481;-70
2024/01/21 01:29:24;;;;;;;4.77;3.33;;;;;;;;;;6138666;29;20308;-70
2024/01/21 01:32:28;;;;;;;3.60;3.30;;;;;;;;;;6122236;29;20295;-70
2024/01/21 01:35:32;;;;;;;5.40;3.30;;;;;;;;;;6138367;29;20357;-70
2024/01/21 01:38:36;;;;;;;4.40;3.67;;;;;;;;;;6138689;29;20304;-70
2024/01/21 01:41:42;;;;;;;4.20;3.00;;;;;;;;;;6120742;29;20285;-69
2024/01/21 01:44:48;;;;;;;3.47;3.17;;;;;;;;;;6138512;29;20295;-69
2024/01/21 01:47:52;;;;;;;6.80;2.80;;;;;;;;;;6138543;28;20244;-71
2024/01/21 01:50:58;;;;;;;3.00;2.70;;;;;;;;;;6138498;29;20267;-69
2024/01/21 01:54:03;;;;;;;5.30;2.90;;;;;;;;;;6138415;29;20290;-70
2024/01/21 01:57:08;;;;;;;4.17;2.53;;;;;;;;;;6139002;28;20303;-70
2024/01/21 02:00:16;;;;;;;2.93;2.53;;;;;;;;;;6138590;29;20308;-70
2024/01/21 02:03:21;;;;;;;3.53;2.50;;;;;;;;;;6142177;28;20501;-70
2024/01/21 02:06:24;;;;;;;5.43;2.90;;;;;;;;;;6143077;29;20309;-70
2024/01/21 02:09:29;;;;;;;3.80;2.33;;;;;;;;;;6142667;28;20304;-70
2024/01/21 02:12:33;;;;;;;4.13;2.30;;;;;;;;;;6143316;29;20307;-70
2024/01/21 02:15:38;;;;;;;2.50;2.30;;;;;;;;;;6151433;28;20302;-70
2024/01/21 02:18:43;;;;;;;2.90;2.50;;;;;;;;;;6162180;28;20472;-70
2024/01/21 02:21:48;;;;;;;2.93;2.30;;;;;;;;;;6142766;29;20303;-69
2024/01/21 02:24:53;;;;;;;3.30;2.23;;;;;;;;;;6142566;29;20299;-70
2024/01/21 02:27:57;;;;;;;2.80;2.13;;;;;;;;;;6142207;28;20293;-70
2024/01/21 02:31:02;;;;;;;3.37;2.07;;;;;;;;;;6142786;29;20245;-70
2024/01/21 02:34:08;;;;;;;5.20;2.20;;;;;;;;;;6142182;29;20367;-70
2024/01/21 02:37:12;;;;;;;2.70;2.37;;;;;;;;;;6142867;28;20304;-70
2024/01/21 02:40:18;;;;;;;2.80;2.17;;;;;;;;;;6142214;29;20302;-70
2024/01/21 02:43:21;;;;;;;2.27;2.20;;;;;;;;;;6141958;29;20295;-70
2024/01/21 02:46:25;;;;;;;2.63;2.40;;;;;;;;;;6142433;29;20503;-70
2024/01/21 02:49:29;;;;;;;3.03;2.67;;;;;;;;;;6141952;29;20300;-70
2024/01/21 02:52:33;;;;;;;1.97;1.87;;;;;;;;;;6142505;29;20331;-72
2024/01/21 02:55:38;;;;;;;3.93;2.40;;;;;;;;;;6141893;29;20300;-70
2024/01/21 02:58:42;;;;;;;2.73;2.10;;;;;;;;;;6141825;29;20292;-70
2024/01/21 03:01:46;;;;;;;3.27;2.20;;;;;;;;;;6142029;29;20305;-70
2024/01/21 03:04:50;;;;;;;9.43;2.30;;;;;;;;;;6141757;29;20296;-70
2024/01/21 03:07:54;;;;;;;5.57;2.47;;;;;;;;;;6141588;28;20294;-70
2024/01/21 03:10:59;;;;;;;2.43;2.23;;;;;;;;;;6141603;29;20310;-70
2024/01/21 03:14:03;;;;;;;2.50;2.30;;;;;;;;;;6140315;29;20323;-70
2024/01/21 03:17:07;;;;;;;2.40;2.23;;;;;;;;;;6162653;28;20297;-70
2024/01/21 03:20:12;;;;;;;3.03;1.93;;;;;;;;;;6149030;28;20301;-70
2024/01/21 03:23:18;;;;;;;4.10;2.10;;;;;;;;;;6141327;29;20294;-70
2024/01/21 03:26:24;;;;;;;2.40;2.30;;;;;;;;;;6141971;29;20300;-70
2024/01/21 03:29:27;;;;;;;5.00;2.60;;;;;;;;;;6140799;29;20594;-70
2024/01/21 03:32:31;;;;;;;2.53;2.17;;;;;;;;;;6141140;29;20312;-70
2024/01/21 03:39:03;;;;;;;6.97;2.17;;;;;;;;;;6139704;29;20317;-70
2024/01/21 03:42:08;;;;;;;2.37;2.10;;;;;;;;;;6141007;29;20329;-70
2024/01/21 03:45:12;;;;;;;3.33;2.20;;;;;;;;;;6140752;29;20306;-70
2024/01/21 03:51:44;;;;;;;5.47;2.10;;;;;;;;;;6141102;29;20610;-70
2024/01/21 03:54:48;;;;;;;4.83;2.33;;;;;;;;;;6140613;29;20300;-70
2024/01/21 03:57:53;;;;;;;2.53;2.10;;;;;;;;;;6140265;29;20458;-71
2024/01/21 04:00:57;;;;;;;1.80;1.70;;;;;;;;;;6140356;29;20486;-70
2024/01/21 04:04:07;;;;;;;3.93;2.07;;;;;;;;;;6149101;29;20305;-70
2024/01/21 04:07:12;;;;;;;2.43;2.17;;;;;;;;;;6149923;29;20306;-71
2024/01/21 04:10:15;;;;;;;2.10;2.00;;;;;;;;;;6144847;28;20297;-71
2024/01/21 04:13:21;;;;;;;2.30;2.00;;;;;;;;;;6163823;28;20492;-71
2024/01/21 04:16:31;;;;;;;1.90;1.80;;;;;;;;;;6149132;29;20301;-71
2024/01/21 04:19:35;;;;;;;2.63;1.97;;;;;;;;;;6150938;29;20296;-71
2024/01/21 04:22:38;;;;;;;1.90;1.90;;;;;;;;;;6163773;28;20381;-71
2024/01/21 04:25:42;;;;;;;1.90;1.80;;;;;;;;;;6164037;28;20301;-70
2024/01/21 04:28:49;;;;;;;3.03;1.40;;;;;;;;;;6163330;28;20371;-70
2024/01/21 04:31:53;;;;;;;1.80;1.70;;;;;;;;;;6163908;28;20302;-70
2024/01/21 04:34:57;;;;;;;1.57;1.57;;;;;;;;;;6163136;28;20338;-70
2024/01/21 04:38:01;;;;;;;2.53;1.53;;;;;;;;;;6141044;29;20298;-70
2024/01/21 04:41:05;;;;;;;1.47;1.47;;;;;;;;;;6139919;29;20301;-70
2024/01/21 04:44:10;;;;;;;1.40;1.37;;;;;;;;;;6139147;29;20482;-71
2024/01/21 04:47:14;;;;;;;1.60;1.60;;;;;;;;;;6139849;29;20392;-71
2024/01/21 04:50:18;;;;;;;1.30;1.30;;;;;;;;;;6139042;29;20306;-70
2024/01/21 04:53:22;;;;;;;1.50;1.40;;;;;;;;;;6139182;29;20597;-71
2024/01/21 04:56:26;;;;;;;1.57;1.47;;;;;;;;;;6139749;29;20602;-70
2024/01/21 04:59:31;;;;;;;1.40;1.30;;;;;;;;;;6138805;29;20299;-70
2024/01/21 05:02:35;;;;;;;1.23;1.20;;;;;;;;;;6139554;29;20322;-71
2024/01/21 05:05:39;;;;;;;1.63;1.17;;;;;;;;;;6138602;29;20310;-71
2024/01/21 05:08:43;;;;;;;2.20;1.53;;;;;;;;;;6138011;28;20309;-71
2024/01/21 05:11:47;;;;;;;1.17;1.13;;;;;;;;;;6158093;28;20270;-71
2024/01/21 05:14:52;;;;;;;1.17;1.17;;;;;;;;;;6142333;28;20290;-71
2024/01/21 05:17:57;;;;;;;2.03;1.60;;;;;;;;;;6138560;28;20378;-71
2024/01/21 05:21:02;;;;;;;1.40;1.40;;;;;;;;;;6139151;28;20315;-71
2024/01/21 05:24:06;;;;;;;1.30;1.30;;;;;;;;;;6138269;28;20474;-71
2024/01/21 05:27:11;;;;;;;1.30;1.30;;;;;;;;;;6139211;28;20291;-71
2024/01/21 05:30:17;;;;;;;1.00;1.00;;;;;;;;;;6138601;28;20299;-71
2024/01/21 05:33:22;;;;;;;1.20;1.20;;;;;;;;;;6138598;28;20298;-71
2024/01/21 05:36:25;;;;;;;1.17;1.17;;;;;;;;;;6140030;29;20323;-71
2024/01/21 05:39:29;;;;;;;1.00;1.00;;;;;;;;;;6126579;29;20338;-71
2024/01/21 05:42:33;;;;;;;1.10;1.10;;;;;;;;;;6143623;29;20544;-71
2024/01/21 05:45:40;;;;;;;1.23;1.00;;;;;;;;;;6142991;29;20298;-71
2024/01/21 05:48:44;;;;;;;1.20;1.20;;;;;;;;;;6143134;28;20315;-71
2024/01/21 05:51:48;;;;;;;1.20;1.20;;;;;;;;;;6143361;28;20314;-71
2024/01/21 05:54:52;;;;;;;1.27;1.27;;;;;;;;;;6143069;29;20294;-71
2024/01/21 05:57:56;;;;;;;1.37;1.37;;;;;;;;;;6143037;29;20475;-71
2024/01/21 06:01:01;;;;;;;1.40;1.40;;;;;;;;;;6143697;29;20290;-71
2024/01/21 06:04:05;;;;;;;1.20;1.20;;;;;;;;;;6142767;29;20299;-71
2024/01/21 06:07:09;;;;;;;1.33;1.33;;;;;;;;;;6143489;29;20297;-71
2024/01/21 06:10:13;;;;;;;1.37;1.37;;;;;;;;;;6149523;29;20302;-71
2024/01/21 06:13:17;;;;;;;1.43;1.33;;;;;;;;;;6166313;28;20299;-71
2024/01/21 06:16:22;;;;;;;2.20;1.70;;;;;;;;;;6152396;29;20307;-71
2024/01/21 06:19:26;;;;;;;1.60;1.53;;;;;;;;;;6142709;29;20299;-71
2024/01/21 06:22:30;;;;;;;1.50;1.50;;;;;;;;;;6143101;29;20326;-71
2024/01/21 06:25:34;;;;;;;1.70;1.60;;;;;;;;;;6142564;29;20293;-71
2024/01/21 06:28:38;;;;;;;1.90;1.90;;;;;;;;;;6142251;28;20299;-71
2024/01/21 06:31:44;;;;;;;1.90;1.80;;;;;;;;;;6142908;29;20485;-72
2024/01/21 06:34:48;;;;;;;2.00;2.00;;;;;;;;;;6142523;29;20294;-71
2024/01/21 06:37:51;;;;;;;1.97;1.97;;;;;;;;;;6142254;29;20577;-71
2024/01/21 06:40:55;;;;;;;1.83;1.83;;;;;;;;;;6142944;29;20303;-71
2024/01/21 06:43:59;;;;;;;2.10;2.00;;;;;;;;;;6141880;29;20299;-71
2024/01/21 06:47:05;;;;;;;2.50;2.30;;;;;;;;;;6142260;29;20304;-71
2024/01/21 06:50:10;;;;;;;2.30;2.20;;;;;;;;;;6141997;29;20318;-71
2024/01/21 06:53:14;;;;;;;2.17;2.17;;;;;;;;;;6141940;29;20476;-71
2024/01/21 06:56:17;;;;;;;2.10;2.10;;;;;;;;;;6142351;29;20305;-71
2024/01/21 06:59:21;;;;;;;2.20;2.10;;;;;;;;;;6141761;29;20297;-71
2024/01/21 07:02:26;;;;;;;2.60;2.13;;;;;;;;;;6142105;29;20312;-71
2024/01/21 07:05:30;;;;;;;1.87;1.87;;;;;;;;;;6141693;29;20294;-71
2024/01/21 07:08:34;;;;;;;2.20;2.10;;;;;;;;;;6141480;29;20298;-71
2024/01/21 07:11:41;;;;;;;2.13;2.00;;;;;;;;;;6160035;29;20297;-71
2024/01/21 07:14:46;;;;;;;2.13;1.90;;;;;;;;;;6162425;28;20317;-71
2024/01/21 07:17:51;;;;;;;1.87;1.77;;;;;;;;;;6141096;28;20250;-71
2024/01/21 07:20:55;;;;;;;2.30;2.20;;;;;;;;;;6141868;28;20264;-71
2024/01/21 07:23:59;;;;;;;2.00;2.00;;;;;;;;;;6141279;28;20543;-71
2024/01/21 07:27:03;;;;;;;2.00;1.97;;;;;;;;;;6141623;28;20497;-71
2024/01/21 07:30:08;;;;;;;2.30;2.20;;;;;;;;;;6141140;28;20299;-71
2024/01/21 07:33:13;;;;;;;2.43;2.33;;;;;;;;;;6140658;28;20603;-72
2024/01/21 07:36:19;;;;;;;2.17;2.07;;;;;;;;;;6124584;29;20300;-72
2024/01/21 07:39:23;;;;;;;2.23;2.13;;;;;;;;;;6141049;28;20304;-71
2024/01/21 07:42:29;;;;;;;2.10;2.10;;;;;;;;;;6141228;29;20322;-71
2024/01/21 07:45:32;;;;;;;2.60;2.47;;;;;;;;;;6140867;28;20301;-71
2024/01/21 07:48:38;;;;;;;2.40;2.30;;;;;;;;;;6140553;28;20361;-71
2024/01/21 07:51:42;;;;;;;2.67;2.60;;;;;;;;;;6141583;29;20306;-71
2024/01/21 07:54:46;;;;;;;4.13;2.07;;;;;;;;;;6140765;28;20312;-71
2024/01/21 07:57:49;;;;;;;2.60;2.37;;;;;;;;;;6140523;29;20604;-72
2024/01/21 08:00:53;;;;;;;2.50;2.40;;;;;;;;;;6139996;29;20436;-71
2024/01/21 08:03:59;;;;;;;2.37;2.27;;;;;;;;;;6140173;29;20605;-71
2024/01/21 08:07:03;;;;;;;3.33;2.37;;;;;;;;;;6140912;29;20318;-71
2024/01/21 08:10:09;;;;;;;2.40;2.30;;;;;;;;;;6145847;29;20302;-71
2024/01/21 08:13:13;;;;;;;2.60;2.60;;;;;;;;;;6163723;28;20300;-72
2024/01/21 08:16:17;;;;;;;2.63;2.53;;;;;;;;;;6150277;29;20296;-72
2024/01/21 08:19:23;;;;;;;2.67;2.50;;;;;;;;;;6139967;29;20298;-71
2024/01/21 08:22:26;;;;;;;2.57;2.47;;;;;;;;;;6139981;29;20515;-71
2024/01/21 08:25:31;;;;;;;2.53;2.40;;;;;;;;;;6139922;29;20306;-71
2024/01/21 08:28:35;;;;;;;3.27;2.50;;;;;;;;;;6139520;28;20298;-72
2024/01/21 08:31:43;;;;;;;2.60;2.50;;;;;;;;;;6140202;29;20292;-71
2024/01/21 08:34:49;;;;;;;3.00;2.90;;;;;;;;;;6139605;29;20295;-72
2024/01/21 08:37:53;;;;;;;2.97;2.80;;;;;;;;;;6139564;29;20376;-71
2024/01/21 08:40:57;;;;;;;3.20;3.00;;;;;;;;;;6139801;29;20301;-72
2024/01/21 08:44:01;;;;;;;3.53;3.23;;;;;;;;;;6139263;29;20301;-71
2024/01/21 08:47:05;;;;;;;4.17;3.40;;;;;;;;;;6140041;29;20358;-72
2024/01/21 08:50:11;;;;;;;5.85;5.13;;;;;;;;;;6137820;29;20555;-71
2024/01/21 08:53:15;;;;;;;3.83;3.57;;;;;;;;;;6139064;29;20305;-72
2024/01/21 08:56:18;;;;;;;3.97;3.70;;;;;;;;;;6139712;29;20314;-72
2024/01/21 08:59:22;;;;;;;5.85;5.25;;;;;;;;;;6137610;29;20482;-71
2024/01/21 09:02:26;;;;;;;7.10;4.10;;;;;;;;;;6139523;29;20316;-71
2024/01/21 09:05:32;;;;;;;3.80;3.60;;;;;;;;;;6138908;29;20370;-71
2024/01/21 09:08:35;;;;;;;6.17;3.70;;;;;;;;;;6138786;29;20295;-71
2024/01/21 09:11:40;;;;;;;5.10;4.10;;;;;;;;;;6156616;28;20301;-72
2024/01/21 09:14:44;;;;;;;4.03;3.63;;;;;;;;;;6160025;28;20302;-73
2024/01/21 09:17:48;;;;;;;4.37;3.70;;;;;;;;;;6138534;29;20417;-72
2024/01/21 09:20:54;;;;;;;5.20;4.10;;;;;;;;;;6138996;28;20243;-72
2024/01/21 09:24:01;;;;;;;3.80;3.60;;;;;;;;;;6138674;29;20310;-72
2024/01/21 09:27:05;;;;;;;3.77;3.57;;;;;;;;;;6139188;28;20318;-71
2024/01/21 09:30:10;;;;;;;4.00;3.60;;;;;;;;;;6138519;28;20471;-72
2024/01/21 09:33:14;;;;;;;5.20;3.60;;;;;;;;;;6121511;28;20308;-72
2024/01/21 09:36:20;;;;;;;3.97;3.60;;;;;;;;;;6138893;29;20309;-72
2024/01/21 09:39:25;;;;;;;4.43;3.97;;;;;;;;;;6138401;29;20449;-72
2024/01/21 09:42:29;;;;;;;3.70;3.47;;;;;;;;;;6138564;29;20571;-70
2024/01/21 09:45:35;;;;;;;3.67;3.40;;;;;;;;;;6138464;29;20593;-70
2024/01/21 09:48:39;;;;;;;4.07;3.70;;;;;;;;;;6138236;28;20429;-70
2024/01/21 09:51:45;;;;;;;4.00;3.70;;;;;;;;;;6138806;29;20308;-70
2024/01/21 09:54:50;;;;;;;3.63;3.43;;;;;;;;;;6138259;28;20311;-70
2024/01/21 09:57:54;;;;;;;4.83;3.63;;;;;;;;;;6138463;29;20294;-71
2024/01/21 10:00:58;;;;;;;5.63;3.43;;;;;;;;;;6138648;28;20320;-70
2024/01/21 10:04:03;;;;;;;3.63;3.40;;;;;;;;;;6138356;29;20470;-70
2024/01/21 10:07:08;;;;;;;5.20;3.50;;;;;;;;;;6138769;29;20303;-70
2024/01/21 10:10:13;;;;;;;4.23;3.97;;;;;;;;;;6142689;29;20460;-70
2024/01/21 10:13:17;;;;;;;4.20;3.70;;;;;;;;;;6138295;28;20302;-71
2024/01/21 10:16:21;;;;;;;4.30;4.00;;;;;;;;;;6152926;28;20499;-70
2024/01/21 10:19:26;;;;;;;4.23;3.90;;;;;;;;;;6161606;28;20290;-70
2024/01/21 10:22:32;;;;;;;6.93;3.93;;;;;;;;;;6163948;28;20609;-70
2024/01/21 10:25:35;;;;;;;8.93;4.10;;;;;;;;;;6166607;28;20614;-71
2024/01/21 10:28:41;;;;;;;5.53;4.70;;;;;;;;;;6166531;28;20294;-71
2024/01/21 10:31:45;;;;;;;5.93;4.53;;;;;;;;;;6166960;28;20299;-74
2024/01/21 10:34:50;;;;;;;4.53;4.13;;;;;;;;;;6166145;28;20313;-71
2024/01/21 10:37:58;;;;;;;5.23;4.83;;;;;;;;;;6166231;28;20293;-71
2024/01/21 10:41:05;;;;;;;5.37;4.10;;;;;;;;;;6166713;28;20310;-71
2024/01/21 10:44:09;;;;;;;4.40;4.07;;;;;;;;;;6165930;28;20477;-71
2024/01/21 10:47:13;;;;;;;9.90;4.53;;;;;;;;;;6166395;28;20298;-71
2024/01/21 10:50:17;;;;;;;4.90;4.50;;;;;;;;;;6165771;28;20302;-71
2024/01/21 10:53:24;;;;;;;4.90;4.23;;;;;;;;;;6165859;28;20303;-70
2024/01/21 10:56:28;;;;;;;5.77;4.97;;;;;;;;;;6166025;28;20304;-71
2024/01/21 10:59:34;;;;;;;7.80;4.17;;;;;;;;;;6165450;28;20293;-76
2024/01/21 11:02:38;;;;;;;4.73;4.20;;;;;;;;;;6165471;28;20298;-73
2024/01/21 11:05:42;;;;;;;5.07;4.53;;;;;;;;;;6165161;28;20302;-67
2024/01/21 11:08:50;;;;;;;8.90;4.90;;;;;;;;;;6165291;28;20302;-65
2024/01/21 11:11:54;;;;;;;6.70;4.50;;;;;;;;;;6145837;28;20312;-71
2024/01/21 11:15:29;;;;;;;5.97;5.10;;;;;;;;;;6144932;28;20290;-72
2024/01/21 11:18:33;;;;;;;6.77;5.13;;;;;;;;;;6165442;28;20302;-71
2024/01/21 11:21:40;;;;;;;5.80;5.20;;;;;;;;;;6165684;28;20306;-72
2024/01/21 11:24:47;;;;;;;5.83;5.10;;;;;;;;;;6164925;28;20405;-70
2024/01/21 11:27:51;;;;;;;5.10;4.23;;;;;;;;;;6164699;28;20310;-72
2024/01/21 11:31:01;;;;;;;7.70;4.63;;;;;;;;;;6165606;28;20293;-72
2024/01/21 11:34:06;;;;;;;9.03;5.23;;;;;;;;;;6163616;28;20330;-72
2024/01/21 11:37:13;;;;;;;8.77;5.30;;;;;;;;;;6165309;28;20301;-72
2024/01/21 11:40:18;;;;;;;5.97;5.33;;;;;;;;;;6164834;28;20302;-71
2024/01/21 11:43:22;;;;;;;9.67;6.07;;;;;;;;;;6164564;28;20602;-70
2024/01/21 11:46:26;;;;;;;9.03;6.00;;;;;;;;;;6165067;28;20309;-73
2024/01/21 11:49:30;;;;;;;9.90;6.27;;;;;;;;;;6164534;28;20310;-60
2024/01/21 11:52:36;;;;;;;9.63;6.63;;;;;;;;;;6165268;28;20298;-74
2024/01/21 11:55:42;;;;;;;9.40;6.40;;;;;;;;;;6163806;28;20298;-74
2024/01/21 11:58:46;;;;;;;13.97;7.27;;;;;;;;;;6164289;28;20303;-74
2024/01/21 12:01:50;;;;;;;10.30;6.37;;;;;;;;;;6164841;28;20302;-74
2024/01/21 12:04:55;;;;;;;11.63;7.10;;;;;;;;;;6163390;28;20294;-74
2024/01/21 12:08:00;;;;;;;10.17;7.27;;;;;;;;;;6154126;28;20457;-74
2024/01/21 12:11:05;;;;;;;16.83;8.43;;;;;;;;;;6153425;29;20306;-74
2024/01/21 12:14:11;;;;;;;12.33;7.53;;;;;;;;;;6163907;28;20318;-73
2024/01/21 12:17:15;;;;;;;12.27;7.57;;;;;;;;;;6142334;29;20303;-74
2024/01/21 12:20:20;;;;;;;13.83;8.07;;;;;;;;;;6139862;29;20305;-74
2024/01/21 12:23:24;;;;;;;10.90;7.40;;;;;;;;;;6139755;29;20500;-74
2024/01/21 12:26:29;;;;;;;14.77;8.20;;;;;;;;;;6140291;29;20302;-73
2024/01/21 12:29:37;;;;;;;18.77;8.37;;;;;;;;;;6139992;29;20290;-74
2024/01/21 12:32:41;;;;;;;16.63;8.60;;;;;;;;;;6138820;28;20306;-72
2024/01/21 12:35:58;;;;;;;19.07;9.00;;;;;;;;;;6139889;29;20285;-73
2024/01/21 12:39:04;;;;;;;18.23;8.87;;;;;;;;;;6139616;29;20298;-73
2024/01/21 12:42:10;;;;;;;15.93;8.77;;;;;;;;;;6139710;29;20301;-73
2024/01/21 12:45:13;;;;;;;19.90;8.77;;;;;;;;;;6139334;29;20457;-72
2024/01/21 12:48:18;;;;;;;15.63;8.40;;;;;;;;;;6139623;28;20298;-72
2024/01/21 12:51:22;;;;;;;19.90;9.37;;;;;;;;;;6139979;29;20302;-73
2024/01/21 12:54:27;;;;;;;21.47;9.17;;;;;;;;;;6139274;28;20474;-73
2024/01/21 12:57:33;;;;;;;15.10;9.07;;;;;;;;;;6139482;29;20299;-73
2024/01/21 13:00:37;;;;;;;21.17;10.03;;;;;;;;;;6139076;28;20482;-73
2024/01/21 13:03:41;;;;;;;16.90;9.47;;;;;;;;;;6138945;29;20297;-74
2024/01/21 13:06:45;;;;;;;18.43;9.80;;;;;;;;;;6139346;29;20294;-73
2024/01/21 13:09:49;;;;;;;18.60;8.97;;;;;;;;;;6142788;29;20577;-72
2024/01/21 13:12:55;;;;;;;23.67;10.07;;;;;;;;;;6163242;28;20504;-72
2024/01/21 13:16:00;;;;;;;15.40;9.00;;;;;;;;;;6151488;29;20303;-74
2024/01/21 13:19:04;;;;;;;18.87;9.50;;;;;;;;;;6137681;29;20317;-74
2024/01/21 13:22:09;;;;;;;17.40;8.50;;;;;;;;;;7135372;23;20405;-69
2024/01/21 13:25:13;;;;;;;;;;;;;;;;;;6187721;28;20189;-59
2024/01/21 13:28:27;;;;;;;;;;;;;;;;;;6186365;28;19984;-56
2024/01/21 13:31:30;;;;;;;;;;;;;;;;;;6187233;28;19981;-57
2024/01/21 13:34:34;;;;;;;18.03;9.47;;;;;;;;;;6186237;28;20098;-57
2024/01/21 13:37:38;;;;;;;20.93;9.93;;;;;;;;;;6186014;28;20297;-59
2024/01/21 13:40:42;;;;;;;20.13;9.93;;;;;;;;;;6186329;28;20478;-56
2024/01/21 13:43:48;;;;;;;20.23;9.23;;;;;;;;;;6185681;28;20294;-59
2024/01/21 13:46:52;;;;;;;15.07;8.97;;;;;;;;;;6186115;28;20301;-58
2024/01/21 13:49:56;;;;;;;18.93;9.33;;;;;;;;;;6186534;28;20294;-59
2024/01/21 13:53:01;;;;;;;15.10;9.17;;;;;;;;;;6187181;28;20298;-59
2024/01/21 13:56:05;;;;;;;17.63;9.33;;;;;;;;;;6188256;28;20305;-58
2024/01/21 13:59:11;;;;;;;22.90;9.60;;;;;;;;;;6166704;29;20298;-57
2024/01/21 14:02:15;;;;;;;19.53;9.20;;;;;;;;;;6168200;29;20285;-57
2024/01/21 14:05:22;;;;;;;21.17;9.53;;;;;;;;;;6167812;28;20298;-59
2024/01/21 14:08:26;;;;;;;19.67;10.53;;;;;;;;;;6168017;29;20294;-57
2024/01/21 14:11:30;;;;;;;17.87;9.10;;;;;;;;;;6168593;29;20295;-60
2024/01/21 14:14:36;;;;;;;21.20;9.47;;;;;;;;;;6166720;29;20555;-58
2024/01/21 14:17:41;;;;;;;25.13;10.30;;;;;;;;;;6166268;29;20300;-57
2024/01/21 14:20:45;;;;;;;14.57;9.00;;;;;;;;;;6165639;28;20279;-58
2024/01/21 14:23:49;;;;;;;18.10;10.17;;;;;;;;;;6165654;29;20294;-58
2024/01/21 14:26:53;;;;;;;16.87;9.10;;;;;;;;;;6166111;29;20256;-55
2024/01/21 14:30:03;;;;;;;20.77;9.40;;;;;;;;;;6185197;28;20242;-58
2024/01/21 14:33:07;;;;;;;18.57;9.60;;;;;;;;;;6189524;28;20460;-58
2024/01/21 14:36:11;;;;;;;19.50;9.33;;;;;;;;;;6190199;28;20289;-55
2024/01/21 14:39:16;;;;;;;20.30;8.97;;;;;;;;;;6189731;28;20302;-58
2024/01/21 14:42:19;;;;;;;17.80;9.03;;;;;;;;;;6189375;28;20470;-55
2024/01/21 14:45:25;;;;;;;20.97;8.63;;;;;;;;;;6189356;28;20298;-57
2024/01/21 14:48:29;;;;;;;18.40;9.43;;;;;;;;;;6189366;28;20300;-57
2024/01/21 14:51:33;;;;;;;17.97;8.57;;;;;;;;;;6189935;28;20427;-56
2024/01/21 14:54:37;;;;;;;13.00;8.00;;;;;;;;;;6189244;28;20297;-56
2024/01/21 14:57:41;;;;;;;13.80;8.43;;;;;;;;;;6189272;28;20294;-57
2024/01/21 15:00:49;;;;;;;18.73;8.20;;;;;;;;;;6189596;28;20498;-55
2024/01/21 15:03:53;;;;;;;14.17;8.07;;;;;;;;;;6171847;28;20293;-58
2024/01/21 15:06:58;;;;;;;14.53;8.13;;;;;;;;;;6189005;28;20318;-56
2024/01/21 15:10:02;;;;;;;16.33;8.90;;;;;;;;;;6188459;28;20293;-58
2024/01/21 15:13:08;;;;;;;14.80;8.23;;;;;;;;;;6188944;28;20563;-56
2024/01/21 15:16:13;;;;;;;11.40;7.03;;;;;;;;;;6189478;28;20300;-58
2024/01/21 15:19:17;;;;;;;14.53;7.63;;;;;;;;;;6188799;28;20308;-57
2024/01/21 15:22:21;;;;;;;13.83;7.87;;;;;;;;;;6188731;28;20305;-57
2024/01/21 15:25:28;;;;;;;13.57;7.60;;;;;;;;;;6189232;28;20293;-58
2024/01/21 15:28:32;;;;;;;14.10;7.10;;;;;;;;;;6188617;28;20576;-59
2024/01/21 15:31:38;;;;;;;14.23;7.47;;;;;;;;;;6189124;28;20302;-57
2024/01/21 15:34:42;;;;;;;13.43;6.93;;;;;;;;;;6188349;28;20345;-57
2024/01/21 15:37:46;;;;;;;12.67;6.87;;;;;;;;;;6188420;28;20306;-56
2024/01/21 15:40:50;;;;;;;10.10;6.23;;;;;;;;;;6189082;28;20302;-57
2024/01/21 15:43:54;;;;;;;11.53;6.10;;;;;;;;;;6188416;28;20614;-57
2024/01/21 15:46:59;;;;;;;9.83;6.53;;;;;;;;;;6188362;28;20313;-56
2024/01/21 15:50:03;;;;;;;7.40;5.53;;;;;;;;;;6188729;28;20602;-58
2024/01/21 15:53:07;;;;;;;8.50;5.80;;;;;;;;;;6188541;28;20297;-58
2024/01/21 15:56:11;;;;;;;11.33;6.47;;;;;;;;;;6189401;28;20298;-58
2024/01/21 15:59:15;;;;;;;11.33;5.67;;;;;;;;;;6187906;28;20298;-58
2024/01/21 16:02:20;;;;;;;12.30;5.80;;;;;;;;;;6188276;28;20293;-59
2024/01/21 16:05:24;;;;;;;7.47;5.43;;;;;;;;;;6188669;28;20305;-58
2024/01/21 16:08:28;;;;;;;9.97;5.63;;;;;;;;;;6188209;28;20302;-58
2024/01/21 16:11:32;;;;;;;10.50;5.67;;;;;;;;;;6188432;28;20300;-59
2024/01/21 16:14:36;;;;;;;8.20;5.07;;;;;;;;;;6187760;28;20307;-59
2024/01/21 16:17:44;;;;;;;7.87;5.00;;;;;;;;;;6187570;28;20329;-58
2024/01/21 16:20:49;;;;;;;7.50;4.53;;;;;;;;;;6186567;28;20281;-58
2024/01/21 16:23:55;;;;;;;8.37;4.67;;;;;;;;;;6161768;28;20304;-59
2024/01/21 16:26:58;;;;;;;5.63;4.20;;;;;;;;;;6163618;28;20252;-58
2024/01/21 16:30:02;;;;;;;5.13;4.13;;;;;;;;;;6163711;28;20302;-58
2024/01/21 16:33:07;;;;;;;4.93;3.50;;;;;;;;;;6140523;28;20299;-56
2024/01/21 16:36:12;;;;;;;4.93;3.50;;;;;;;;;;6140013;28;20295;-59
2024/01/21 16:39:17;;;;;;;4.20;3.57;;;;;;;;;;6139469;28;20363;-56
2024/01/21 16:42:21;;;;;;;5.33;3.00;;;;;;;;;;6139186;28;20296;-58
2024/01/21 16:45:26;;;;;;;4.57;3.10;;;;;;;;;;6139489;28;20499;-57
2024/01/21 16:48:31;;;;;;;3.37;2.50;;;;;;;;;;6138954;28;20478;-57
2024/01/21 16:51:38;;;;;;;2.80;2.70;;;;;;;;;;6139598;28;20612;-58
2024/01/21 16:54:42;;;;;;;2.47;2.27;;;;;;;;;;6162830;28;20297;-59
2024/01/21 16:57:46;;;;;;;5.60;2.57;;;;;;;;;;6162951;28;20300;-57
2024/01/21 17:00:51;;;;;;;4.30;2.70;;;;;;;;;;6163169;28;20590;-58
2024/01/21 17:03:57;;;;;;;4.93;2.40;;;;;;;;;;6162686;28;20295;-59
2024/01/21 17:07:01;;;;;;;2.23;2.20;;;;;;;;;;6162920;28;20289;-57
2024/01/21 17:10:08;;;;;;;4.07;2.57;;;;;;;;;;6162823;28;20304;-57
2024/01/21 17:13:12;;;;;;;5.93;2.70;;;;;;;;;;6162891;28;20557;-56
2024/01/21 17:16:17;;;;;;;3.60;2.53;;;;;;;;;;6162507;28;20307;-57
2024/01/21 17:19:22;;;;;;;4.07;3.00;;;;;;;;;;6162035;28;20306;-58
2024/01/21 17:22:26;;;;;;;3.27;2.60;;;;;;;;;;6168527;28;20446;-55
2024/01/21 17:25:30;;;;;;;2.40;2.30;;;;;;;;;;6169122;28;20472;-58
2024/01/21 17:28:35;;;;;;;4.93;2.40;;;;;;;;;;6186484;28;20308;-57
2024/01/21 17:31:40;;;;;;;3.53;2.80;;;;;;;;;;6185677;28;20483;-56
2024/01/21 17:34:46;;;;;;;4.30;2.60;;;;;;;;;;6186268;28;20604;-57
2024/01/21 17:37:49;;;;;;;4.70;2.73;;;;;;;;;;6186113;28;20293;-58
2024/01/21 17:40:54;;;;;;;3.73;2.53;;;;;;;;;;6186924;28;20300;-57
2024/01/21 17:43:58;;;;;;;3.43;2.40;;;;;;;;;;6186188;28;20289;-58
2024/01/21 17:47:02;;;;;;;4.47;2.40;;;;;;;;;;6185888;28;20332;-58
2024/01/21 17:50:08;;;;;;;4.80;2.30;;;;;;;;;;6186705;28;20351;-58
2024/01/21 17:53:12;;;;;;;4.23;2.60;;;;;;;;;;6168880;28;20613;-57
2024/01/21 17:56:16;;;;;;;3.43;2.50;;;;;;;;;;6186818;28;20302;-58
2024/01/21 17:59:20;;;;;;;3.53;2.20;;;;;;;;;;6185924;28;20298;-58
2024/01/21 18:02:24;;;;;;;3.73;1.93;;;;;;;;;;6186104;28;20299;-58
2024/01/21 18:05:29;;;;;;;5.37;2.60;;;;;;;;;;6186752;28;20299;-57
2024/01/21 18:08:35;;;;;;;4.20;2.43;;;;;;;;;;6186144;28;20299;-58
2024/01/21 18:11:39;;;;;;;3.77;2.27;;;;;;;;;;6168656;28;20468;-58
2024/01/21 18:14:43;;;;;;;7.50;3.70;;;;;;;;;;6185094;28;20286;-59
2024/01/21 18:17:47;;;;;;;7.17;3.03;;;;;;;;;;6186111;28;20294;-59
2024/01/21 18:20:54;;;;;;;4.90;2.87;;;;;;;;;;6185925;28;20276;-56
2024/01/21 18:23:58;;;;;;;6.40;2.67;;;;;;;;;;6185609;28;20293;-58
2024/01/21 18:27:03;;;;;;;2.77;2.57;;;;;;;;;;6175021;28;20265;-58
2024/01/21 18:30:09;;;;;;;2.93;2.60;;;;;;;;;;6167278;28;20472;-58